createdAt,value
2023-01-29T00:00:16.665Z,62.39
2023-01-29T00:01:16.359Z,60.19
2023-01-29T00:02:16.384Z,59.95
2023-01-29T00:03:16.368Z,61.68
2023-01-29T00:04:16.348Z,60.46
2023-01-29T00:05:27.439Z,59.90
2023-01-29T00:06:18.323Z,60.13
2023-01-29T00:07:16.295Z,60.45
2023-01-29T00:08:16.290Z,62.40
2023-01-29T00:09:16.297Z,61.02
2023-01-29T00:10:16.639Z,59.40
2023-01-29T00:11:16.260Z,58.89
2023-01-29T00:12:16.256Z,59.34
2023-01-29T00:13:16.250Z,58.07
2023-01-29T00:14:16.256Z,59.35
2023-01-29T00:15:16.214Z,59.20
2023-01-29T00:16:16.213Z,59.56
2023-01-29T00:17:16.278Z,57.04
2023-01-29T00:18:16.196Z,57.28
2023-01-29T00:19:16.211Z,59.38
2023-01-29T00:20:16.402Z,60.52
2023-01-29T00:21:16.164Z,57.90
2023-01-29T00:22:16.158Z,58.21
2023-01-29T00:23:16.134Z,56.81
2023-01-29T00:24:16.309Z,57.37
2023-01-29T00:25:16.135Z,58.31
2023-01-29T00:26:16.119Z,59.10
2023-01-29T00:27:16.101Z,60.12
2023-01-29T00:28:16.099Z,59.88
2023-01-29T00:29:16.106Z,57.97
2023-01-29T00:30:16.349Z,58.23
2023-01-29T00:31:16.185Z,55.69
2023-01-29T00:32:16.218Z,59.05
2023-01-29T00:33:16.039Z,57.45
2023-01-29T00:34:16.061Z,56.88
2023-01-29T00:35:16.021Z,58.12
2023-01-29T00:36:16.009Z,56.99
2023-01-29T00:37:16.002Z,56.97
2023-01-29T00:38:16.001Z,58.14
2023-01-29T00:39:16.006Z,57.60
2023-01-29T00:40:16.496Z,55.72
2023-01-29T00:41:15.962Z,54.70
2023-01-29T00:42:15.945Z,56.46
2023-01-29T00:43:15.940Z,57.22
2023-01-29T00:44:15.950Z,57.33
2023-01-29T00:45:15.927Z,54.76
2023-01-29T00:46:15.951Z,56.16
2023-01-29T00:47:15.894Z,53.88
2023-01-29T00:48:16.897Z,56.25
2023-01-29T00:49:15.910Z,54.22
2023-01-29T00:50:16.078Z,57.76
2023-01-29T00:51:15.869Z,53.21
2023-01-29T00:52:15.863Z,52.34
2023-01-29T00:53:15.852Z,56.50
2023-01-29T00:54:15.863Z,53.81
2023-01-29T00:55:15.835Z,55.32
2023-01-29T00:56:15.834Z,53.14
2023-01-29T00:57:15.811Z,53.79
2023-01-29T00:58:15.795Z,56.41
2023-01-29T00:59:15.809Z,54.84
2023-01-29T01:00:16.150Z,55.34
2023-01-29T01:01:15.807Z,57.80
2023-01-29T01:02:15.798Z,57.71
2023-01-29T01:03:15.753Z,55.24
2023-01-29T01:04:15.766Z,56.94
2023-01-29T01:05:15.747Z,54.86
2023-01-29T01:06:15.740Z,53.62
2023-01-29T01:07:15.712Z,57.88
2023-01-29T01:08:15.703Z,55.27
2023-01-29T01:09:15.716Z,57.41
2023-01-29T01:10:15.980Z,54.24
2023-01-29T01:11:15.674Z,55.86
2023-01-29T01:12:15.660Z,54.68
2023-01-29T01:13:15.650Z,57.91
2023-01-29T01:14:15.653Z,56.71
2023-01-29T01:15:15.632Z,54.08
2023-01-29T01:16:15.679Z,53.71
2023-01-29T01:17:15.611Z,55.21
2023-01-29T01:18:15.599Z,55.69
2023-01-29T01:19:16.603Z,57.26
2023-01-29T01:20:15.917Z,53.94
2023-01-29T01:21:15.567Z,54.76
2023-01-29T01:22:15.560Z,54.31
2023-01-29T01:23:15.550Z,56.43
2023-01-29T01:24:15.617Z,56.24
2023-01-29T01:25:15.545Z,55.92
2023-01-29T01:26:15.529Z,53.86
2023-01-29T01:27:15.520Z,54.32
2023-01-29T01:28:15.521Z,53.51
2023-01-29T01:29:15.518Z,54.09
2023-01-29T01:30:15.912Z,53.90
2023-01-29T01:31:15.606Z,57.82
2023-01-29T01:32:15.463Z,57.45
2023-01-29T01:33:15.453Z,55.46
2023-01-29T01:34:15.456Z,58.53
2023-01-29T01:35:15.445Z,54.90
2023-01-29T01:36:15.427Z,56.46
2023-01-29T01:37:15.417Z,55.03
2023-01-29T01:38:15.403Z,55.70
2023-01-29T01:39:15.433Z,58.52
2023-01-29T01:40:15.658Z,57.66
2023-01-29T01:41:15.376Z,56.01
2023-01-29T01:42:15.353Z,55.87
2023-01-29T01:43:15.358Z,54.83
2023-01-29T01:44:15.360Z,54.39
2023-01-29T01:45:15.342Z,55.38
2023-01-29T01:46:15.338Z,57.42
2023-01-29T01:47:15.322Z,55.11
2023-01-29T01:48:15.307Z,55.75
2023-01-29T01:49:15.318Z,55.47
2023-01-29T01:50:15.631Z,55.72
2023-01-29T01:51:15.284Z,57.55
2023-01-29T01:52:15.273Z,56.37
2023-01-29T01:53:15.267Z,56.15
2023-01-29T01:54:15.266Z,56.03
2023-01-29T01:55:15.257Z,55.55
2023-01-29T01:56:15.235Z,54.39
2023-01-29T01:57:15.218Z,54.96
2023-01-29T01:58:15.218Z,56.62
2023-01-29T01:59:15.210Z,57.81
2023-01-29T02:00:15.501Z,54.48
2023-01-29T02:01:15.239Z,55.03
2023-01-29T02:02:15.186Z,55.37
2023-01-29T02:03:15.156Z,56.10
2023-01-29T02:04:15.171Z,54.31
2023-01-29T02:05:15.151Z,55.49
2023-01-29T02:06:15.131Z,54.56
2023-01-29T02:07:15.127Z,55.37
2023-01-29T02:08:15.107Z,54.57
2023-01-29T02:09:15.117Z,56.72
2023-01-29T02:10:15.473Z,54.70
2023-01-29T02:11:15.078Z,54.39
2023-01-29T02:12:15.073Z,55.03
2023-01-29T02:13:15.055Z,54.32
2023-01-29T02:14:15.086Z,53.69
2023-01-29T02:15:15.041Z,52.89
2023-01-29T02:16:15.028Z,52.82
2023-01-29T02:17:15.055Z,53.40
2023-01-29T02:18:15.004Z,54.53
2023-01-29T02:19:15.006Z,54.32
2023-01-29T02:20:15.427Z,56.33
2023-01-29T02:21:14.982Z,54.17
2023-01-29T02:22:14.968Z,54.89
2023-01-29T02:23:14.944Z,53.57
2023-01-29T02:24:15.087Z,54.06
2023-01-29T02:25:14.957Z,53.23
2023-01-29T02:26:14.944Z,56.72
2023-01-29T02:27:14.909Z,54.49
2023-01-29T02:28:14.902Z,52.89
2023-01-29T02:29:14.916Z,55.06
2023-01-29T02:30:15.336Z,52.79
2023-01-29T02:31:14.920Z,52.95
2023-01-29T02:32:14.873Z,53.28
2023-01-29T02:33:14.861Z,53.23
2023-01-29T02:34:14.879Z,56.75
2023-01-29T02:35:14.834Z,54.49
2023-01-29T02:36:14.836Z,54.28
2023-01-29T02:37:14.826Z,54.79
2023-01-29T02:38:14.805Z,53.69
2023-01-29T02:39:14.807Z,54.77
2023-01-29T02:40:15.123Z,56.00
2023-01-29T02:41:14.776Z,55.07
2023-01-29T02:42:14.765Z,55.28
2023-01-29T02:43:14.752Z,54.46
2023-01-29T02:44:14.772Z,54.55
2023-01-29T02:45:14.733Z,55.50
2023-01-29T02:46:14.779Z,55.36
2023-01-29T02:47:14.715Z,55.46
2023-01-29T02:48:14.733Z,54.50
2023-01-29T02:49:14.715Z,55.51
2023-01-29T02:50:15.068Z,55.94
2023-01-29T02:51:14.733Z,55.70
2023-01-29T02:52:14.664Z,55.79
2023-01-29T02:53:14.663Z,54.19
2023-01-29T02:54:14.664Z,53.94
2023-01-29T02:55:14.647Z,54.29
2023-01-29T02:56:14.630Z,53.84
2023-01-29T02:57:14.678Z,54.64
2023-01-29T02:58:14.611Z,54.36
2023-01-29T02:59:14.626Z,56.17
2023-01-29T03:00:14.832Z,54.42
2023-01-29T03:01:14.593Z,53.81
2023-01-29T03:02:14.603Z,53.00
2023-01-29T03:03:14.546Z,55.83
2023-01-29T03:04:14.565Z,53.59
2023-01-29T03:05:14.542Z,52.21
2023-01-29T03:06:14.525Z,53.22
2023-01-29T03:07:14.511Z,52.33
2023-01-29T03:08:14.508Z,52.94
2023-01-29T03:09:14.503Z,55.33
2023-01-29T03:10:14.883Z,54.27
2023-01-29T03:11:14.474Z,53.75
2023-01-29T03:12:14.474Z,55.24
2023-01-29T03:13:14.462Z,54.39
2023-01-29T03:14:14.491Z,54.26
2023-01-29T03:15:14.453Z,59.56
2023-01-29T03:16:14.437Z,53.47
2023-01-29T03:17:14.421Z,54.71
2023-01-29T03:18:14.419Z,54.23
2023-01-29T03:19:14.401Z,54.10
2023-01-29T03:20:15.019Z,55.21
2023-01-29T03:21:14.378Z,56.24
2023-01-29T03:22:14.374Z,54.65
2023-01-29T03:23:14.356Z,56.66
2023-01-29T03:24:14.430Z,56.79
2023-01-29T03:25:14.394Z,56.83
2023-01-29T03:26:14.344Z,55.89
2023-01-29T03:27:14.384Z,54.04
2023-01-29T03:28:14.318Z,54.37
2023-01-29T03:29:14.310Z,53.87
2023-01-29T03:30:14.748Z,55.32
2023-01-29T03:31:14.365Z,55.19
2023-01-29T03:32:14.370Z,53.61
2023-01-29T03:33:14.270Z,54.25
2023-01-29T03:34:14.259Z,55.28
2023-01-29T03:35:14.261Z,54.56
2023-01-29T03:36:14.237Z,56.04
2023-01-29T03:37:14.231Z,54.34
2023-01-29T03:38:14.224Z,53.91
2023-01-29T03:39:14.216Z,54.44
2023-01-29T03:40:14.571Z,54.16
2023-01-29T03:41:14.213Z,54.60
2023-01-29T03:42:14.180Z,54.38
2023-01-29T03:43:14.183Z,54.68
2023-01-29T03:44:14.174Z,55.07
2023-01-29T03:45:14.178Z,54.19
2023-01-29T03:46:14.144Z,55.88
2023-01-29T03:47:14.133Z,55.34
2023-01-29T03:48:14.129Z,54.98
2023-01-29T03:49:14.115Z,55.60
2023-01-29T03:50:14.342Z,57.10
2023-01-29T03:51:14.095Z,54.96
2023-01-29T03:52:14.085Z,55.97
2023-01-29T03:53:14.075Z,56.54
2023-01-29T03:54:14.059Z,55.61
2023-01-29T03:55:14.069Z,55.00
2023-01-29T03:56:14.049Z,56.91
2023-01-29T03:57:14.037Z,56.53
2023-01-29T03:58:14.013Z,56.95
2023-01-29T03:59:14.021Z,56.37
2023-01-29T04:00:14.214Z,56.87
2023-01-29T04:01:13.997Z,54.56
2023-01-29T04:02:13.986Z,55.02
2023-01-29T04:03:13.980Z,55.55
2023-01-29T04:04:14.009Z,54.35
2023-01-29T04:05:13.970Z,54.84
2023-01-29T04:06:13.940Z,56.02
2023-01-29T04:07:13.939Z,56.10
2023-01-29T04:08:13.931Z,58.22
2023-01-29T04:09:13.916Z,57.61
2023-01-29T04:10:14.195Z,58.49
2023-01-29T04:11:13.892Z,58.54
2023-01-29T04:12:13.889Z,56.38
2023-01-29T04:13:13.877Z,57.74
2023-01-29T04:14:13.862Z,57.18
2023-01-29T04:15:13.872Z,57.55
2023-01-29T04:16:13.881Z,56.29
2023-01-29T04:17:13.844Z,57.44
2023-01-29T04:18:13.834Z,57.82
2023-01-29T04:19:13.814Z,57.03
2023-01-29T04:20:14.032Z,56.34
2023-01-29T04:21:13.802Z,56.82
2023-01-29T04:22:13.788Z,57.59
2023-01-29T04:23:13.780Z,58.22
2023-01-29T04:24:13.813Z,57.39
2023-01-29T04:25:13.784Z,58.80
2023-01-29T04:26:13.742Z,57.17
2023-01-29T04:27:13.761Z,57.72
2023-01-29T04:28:13.736Z,58.36
2023-01-29T04:29:13.721Z,58.43
2023-01-29T04:30:13.781Z,56.15
2023-01-29T04:31:13.811Z,57.22
2023-01-29T04:32:13.716Z,57.01
2023-01-29T04:33:13.678Z,54.19
2023-01-29T04:34:13.669Z,57.38
2023-01-29T04:35:13.690Z,55.95
2023-01-29T04:36:13.659Z,56.46
2023-01-29T04:37:13.653Z,57.56
2023-01-29T04:38:13.643Z,55.22
2023-01-29T04:39:13.624Z,57.99
2023-01-29T04:40:13.700Z,55.98
2023-01-29T04:41:13.614Z,56.53
2023-01-29T04:42:13.584Z,58.12
2023-01-29T04:43:13.617Z,57.28
2023-01-29T04:44:13.583Z,58.03
2023-01-29T04:45:13.587Z,56.04
2023-01-29T04:46:13.553Z,55.36
2023-01-29T04:47:13.573Z,55.00
2023-01-29T04:48:13.533Z,55.13
2023-01-29T04:49:14.537Z,56.85
2023-01-29T04:50:13.682Z,56.95
2023-01-29T04:51:13.509Z,55.67
2023-01-29T04:52:13.501Z,56.15
2023-01-29T04:53:13.490Z,56.00
2023-01-29T04:54:13.477Z,57.64
2023-01-29T04:55:13.491Z,55.87
2023-01-29T04:56:13.462Z,56.82
2023-01-29T04:57:13.451Z,56.35
2023-01-29T04:58:13.440Z,56.09
2023-01-29T04:59:13.447Z,56.15
2023-01-29T05:00:13.738Z,57.95
2023-01-29T05:01:13.426Z,55.89
2023-01-29T05:02:13.399Z,56.63
2023-01-29T05:03:13.408Z,55.78
2023-01-29T05:04:13.398Z,57.58
2023-01-29T05:05:13.402Z,58.18
2023-01-29T05:06:13.381Z,55.99
2023-01-29T05:07:13.363Z,55.61
2023-01-29T05:08:13.339Z,57.57
2023-01-29T05:09:13.337Z,56.82
2023-01-29T05:10:13.351Z,58.04
2023-01-29T05:11:13.311Z,57.25
2023-01-29T05:12:13.304Z,58.05
2023-01-29T05:13:13.296Z,59.31
2023-01-29T05:14:13.279Z,57.00
2023-01-29T05:15:13.293Z,56.03
2023-01-29T05:16:13.388Z,57.30
2023-01-29T05:17:13.281Z,58.30
2023-01-29T05:18:13.240Z,57.85
2023-01-29T05:19:13.998Z,57.74
2023-01-29T05:20:13.285Z,58.36
2023-01-29T05:21:14.218Z,58.66
2023-01-29T05:22:13.209Z,59.17
2023-01-29T05:23:13.213Z,59.81
2023-01-29T05:24:13.241Z,57.65
2023-01-29T05:25:13.192Z,57.94
2023-01-29T05:26:13.164Z,58.44
2023-01-29T05:27:13.183Z,58.94
2023-01-29T05:28:13.153Z,58.41
2023-01-29T05:29:13.142Z,59.95
2023-01-29T05:30:13.134Z,57.12
2023-01-29T05:31:13.221Z,55.86
2023-01-29T05:32:13.127Z,58.09
2023-01-29T05:33:13.099Z,56.36
2023-01-29T05:34:13.082Z,58.29
2023-01-29T05:35:13.101Z,56.71
2023-01-29T05:36:13.076Z,59.99
2023-01-29T05:37:13.066Z,58.14
2023-01-29T05:38:13.046Z,57.36
2023-01-29T05:39:13.043Z,58.54
2023-01-29T05:40:13.050Z,57.48
2023-01-29T05:41:13.022Z,56.97
2023-01-29T05:42:13.005Z,59.18
2023-01-29T05:43:13.004Z,58.32
2023-01-29T05:44:12.997Z,57.27
2023-01-29T05:45:13.030Z,58.08
2023-01-29T05:46:13.021Z,56.14
2023-01-29T05:47:12.965Z,57.75
2023-01-29T05:48:12.953Z,56.59
2023-01-29T05:49:12.949Z,57.98
2023-01-29T05:50:12.941Z,57.79
2023-01-29T05:51:12.924Z,57.28
2023-01-29T05:52:12.915Z,58.18
2023-01-29T05:53:12.909Z,59.07
2023-01-29T05:54:12.889Z,57.90
2023-01-29T05:55:13.912Z,57.77
2023-01-29T05:56:12.883Z,58.52
2023-01-29T05:57:12.868Z,56.94
2023-01-29T05:58:12.916Z,57.06
2023-01-29T05:59:12.841Z,58.23
2023-01-29T06:00:12.882Z,58.29
2023-01-29T06:01:12.838Z,57.89
2023-01-29T06:02:12.850Z,57.31
2023-01-29T06:03:12.877Z,58.02
2023-01-29T06:04:12.801Z,58.02
2023-01-29T06:05:12.821Z,56.17
2023-01-29T06:06:12.778Z,57.74
2023-01-29T06:07:12.768Z,58.38
2023-01-29T06:08:12.761Z,56.45
2023-01-29T06:09:12.756Z,56.07
2023-01-29T06:10:12.763Z,56.91
2023-01-29T06:11:12.720Z,56.91
2023-01-29T06:12:12.719Z,56.60
2023-01-29T06:13:12.713Z,57.91
2023-01-29T06:14:12.711Z,57.48
2023-01-29T06:15:12.714Z,56.88
2023-01-29T06:16:12.731Z,58.94
2023-01-29T06:17:12.681Z,57.48
2023-01-29T06:18:12.672Z,58.04
2023-01-29T06:19:12.657Z,58.53
2023-01-29T06:20:12.641Z,59.66
2023-01-29T06:21:12.648Z,58.74
2023-01-29T06:22:12.631Z,57.12
2023-01-29T06:23:12.620Z,59.29
2023-01-29T06:24:12.664Z,57.70
2023-01-29T06:25:12.630Z,59.28
2023-01-29T06:26:12.603Z,57.19
2023-01-29T06:27:12.617Z,58.79
2023-01-29T06:28:12.574Z,58.02
2023-01-29T06:29:12.563Z,58.62
2023-01-29T06:30:12.551Z,57.76
2023-01-29T06:31:39.137Z,59.12
2023-01-29T06:32:14.652Z,59.04
2023-01-29T06:33:12.525Z,59.60
2023-01-29T06:34:12.522Z,57.61
2023-01-29T06:35:12.496Z,58.87
2023-01-29T06:36:12.511Z,57.90
2023-01-29T06:37:12.486Z,57.74
2023-01-29T06:38:12.469Z,57.77
2023-01-29T06:39:12.451Z,56.85
2023-01-29T06:40:12.457Z,58.93
2023-01-29T06:41:12.463Z,59.27
2023-01-29T06:42:12.424Z,58.30
2023-01-29T06:43:12.421Z,58.51
2023-01-29T06:44:12.408Z,59.33
2023-01-29T06:45:12.405Z,59.51
2023-01-29T06:46:12.407Z,58.09
2023-01-29T06:47:12.382Z,58.53
2023-01-29T06:48:12.372Z,57.72
2023-01-29T06:49:12.365Z,58.57
2023-01-29T06:50:12.344Z,57.42
2023-01-29T06:51:12.364Z,56.60
2023-01-29T06:52:12.345Z,57.14
2023-01-29T06:53:12.330Z,57.09
2023-01-29T06:54:12.318Z,58.36
2023-01-29T06:55:12.307Z,58.45
2023-01-29T06:56:12.339Z,57.08
2023-01-29T06:57:12.281Z,59.84
2023-01-29T06:58:12.270Z,57.37
2023-01-29T06:59:12.265Z,59.60
2023-01-29T07:00:12.256Z,58.37
2023-01-29T07:01:17.489Z,57.80
2023-01-29T07:02:14.304Z,59.30
2023-01-29T07:03:12.228Z,57.33
2023-01-29T07:04:12.241Z,57.50
2023-01-29T07:05:12.213Z,60.12
2023-01-29T07:06:12.234Z,57.47
2023-01-29T07:07:12.183Z,58.29
2023-01-29T07:08:12.187Z,59.42
2023-01-29T07:09:12.168Z,59.58
2023-01-29T07:10:12.160Z,58.16
2023-01-29T07:11:12.172Z,58.15
2023-01-29T07:12:12.137Z,56.94
2023-01-29T07:13:12.130Z,58.12
2023-01-29T07:14:12.134Z,57.67
2023-01-29T07:15:12.112Z,59.10
2023-01-29T07:16:12.158Z,60.72
2023-01-29T07:17:12.089Z,60.54
2023-01-29T07:18:12.128Z,59.44
2023-01-29T07:19:12.072Z,60.16
2023-01-29T07:20:12.059Z,57.99
2023-01-29T07:21:12.073Z,57.78
2023-01-29T07:22:12.029Z,57.01
2023-01-29T07:23:12.029Z,59.03
2023-01-29T07:24:12.092Z,58.96
2023-01-29T07:25:12.010Z,60.45
2023-01-29T07:26:12.016Z,59.12
2023-01-29T07:27:11.992Z,58.91
2023-01-29T07:28:11.978Z,59.95
2023-01-29T07:29:11.972Z,59.46
2023-01-29T07:30:11.947Z,60.25
2023-01-29T07:31:12.141Z,60.07
2023-01-29T07:32:11.963Z,57.75
2023-01-29T07:33:11.928Z,58.88
2023-01-29T07:34:11.926Z,57.74
2023-01-29T07:35:11.907Z,58.27
2023-01-29T07:36:11.935Z,60.02
2023-01-29T07:37:11.894Z,58.56
2023-01-29T07:38:11.892Z,59.92
2023-01-29T07:39:11.866Z,57.54
2023-01-29T07:40:11.864Z,58.15
2023-01-29T07:41:11.868Z,57.57
2023-01-29T07:42:11.842Z,59.49
2023-01-29T07:43:11.842Z,58.72
2023-01-29T07:44:11.825Z,60.11
2023-01-29T07:45:11.818Z,59.63
2023-01-29T07:46:11.864Z,58.70
2023-01-29T07:47:11.799Z,58.93
2023-01-29T07:48:11.793Z,59.16
2023-01-29T07:49:11.802Z,58.10
2023-01-29T07:50:11.756Z,59.71
2023-01-29T07:51:11.789Z,58.16
2023-01-29T07:52:11.763Z,58.82
2023-01-29T07:53:11.732Z,58.42
2023-01-29T07:54:11.732Z,57.80
2023-01-29T07:55:11.715Z,58.32
2023-01-29T07:56:11.728Z,58.72
2023-01-29T07:57:11.777Z,58.58
2023-01-29T07:58:11.678Z,58.07
2023-01-29T07:59:11.677Z,58.98
2023-01-29T08:00:11.684Z,58.37
2023-01-29T08:01:11.741Z,59.41
2023-01-29T08:02:11.688Z,60.73
2023-01-29T08:03:11.630Z,58.02
2023-01-29T08:04:11.684Z,59.46
2023-01-29T08:05:11.609Z,59.31
2023-01-29T08:06:11.617Z,58.44
2023-01-29T08:07:11.595Z,58.52
2023-01-29T08:08:11.585Z,58.84
2023-01-29T08:09:11.584Z,59.65
2023-01-29T08:10:11.579Z,59.17
2023-01-29T08:11:11.570Z,59.82
2023-01-29T08:12:11.545Z,60.13
2023-01-29T08:13:11.536Z,59.83
2023-01-29T08:14:11.519Z,60.91
2023-01-29T08:15:11.511Z,61.30
2023-01-29T08:16:11.567Z,59.23
2023-01-29T08:17:11.499Z,59.77
2023-01-29T08:18:11.482Z,59.16
2023-01-29T08:19:11.471Z,60.15
2023-01-29T08:20:11.463Z,59.13
2023-01-29T08:21:13.061Z,60.61
2023-01-29T08:22:12.439Z,60.22
2023-01-29T08:23:11.434Z,59.18
2023-01-29T08:24:11.437Z,61.71
2023-01-29T08:25:11.428Z,59.88
2023-01-29T08:26:11.467Z,59.99
2023-01-29T08:27:11.456Z,60.61
2023-01-29T08:28:11.387Z,59.21
2023-01-29T08:29:11.369Z,59.09
2023-01-29T08:30:11.354Z,59.58
2023-01-29T08:31:11.397Z,60.08
2023-01-29T08:32:11.342Z,61.29
2023-01-29T08:33:11.338Z,60.38
2023-01-29T08:34:11.327Z,60.38
2023-01-29T08:35:11.338Z,60.44
2023-01-29T08:36:11.331Z,60.65
2023-01-29T08:37:11.313Z,59.92
2023-01-29T08:38:11.281Z,60.23
2023-01-29T08:39:11.287Z,59.91
2023-01-29T08:40:11.267Z,61.01
2023-01-29T08:41:11.264Z,61.22
2023-01-29T08:42:11.230Z,59.16
2023-01-29T08:43:11.230Z,60.25
2023-01-29T08:44:11.224Z,61.53
2023-01-29T08:45:11.213Z,61.50
2023-01-29T08:46:11.266Z,60.01
2023-01-29T08:47:11.182Z,62.37
2023-01-29T08:48:11.181Z,58.57
2023-01-29T08:49:11.178Z,59.68
2023-01-29T08:50:11.163Z,59.04
2023-01-29T08:51:11.171Z,59.76
2023-01-29T08:52:11.136Z,61.17
2023-01-29T08:53:11.135Z,59.38
2023-01-29T08:54:11.124Z,59.92
2023-01-29T08:55:11.120Z,61.05
2023-01-29T08:56:11.129Z,60.85
2023-01-29T08:57:11.097Z,60.47
2023-01-29T08:58:11.078Z,60.74
2023-01-29T08:59:11.078Z,60.89
2023-01-29T09:00:11.074Z,62.76
2023-01-29T09:01:11.129Z,60.57
2023-01-29T09:02:11.091Z,61.10
2023-01-29T09:03:11.035Z,61.33
2023-01-29T09:04:11.036Z,60.16
2023-01-29T09:05:11.034Z,60.78
2023-01-29T09:06:11.039Z,59.97
2023-01-29T09:07:11.029Z,59.60
2023-01-29T09:08:10.999Z,60.45
2023-01-29T09:09:10.983Z,60.93
2023-01-29T09:10:10.972Z,61.38
2023-01-29T09:11:10.986Z,60.48
2023-01-29T09:12:10.954Z,59.45
2023-01-29T09:13:10.946Z,60.30
2023-01-29T09:14:10.931Z,60.20
2023-01-29T09:15:10.921Z,61.45
2023-01-29T09:16:10.931Z,59.52
2023-01-29T09:17:10.923Z,59.41
2023-01-29T09:18:10.901Z,60.85
2023-01-29T09:19:10.887Z,61.13
2023-01-29T09:20:10.884Z,60.30
2023-01-29T09:21:10.873Z,59.39
2023-01-29T09:22:11.891Z,59.52
2023-01-29T09:23:10.865Z,61.72
2023-01-29T09:24:10.881Z,62.48
2023-01-29T09:25:10.833Z,60.98
2023-01-29T09:26:10.853Z,60.42
2023-01-29T09:27:10.841Z,61.51
2023-01-29T09:28:10.810Z,60.78
2023-01-29T09:29:10.793Z,60.81
2023-01-29T09:30:10.782Z,61.49
2023-01-29T09:31:10.869Z,60.77
2023-01-29T09:32:10.796Z,60.85
2023-01-29T09:33:10.770Z,62.17
2023-01-29T09:34:10.748Z,61.27
2023-01-29T09:35:10.742Z,63.23
2023-01-29T09:36:10.737Z,62.54
2023-01-29T09:37:10.745Z,61.58
2023-01-29T09:38:10.709Z,61.85
2023-01-29T09:39:10.701Z,61.68
2023-01-29T09:40:10.692Z,63.02
2023-01-29T09:41:10.686Z,61.73
2023-01-29T09:42:10.702Z,61.18
2023-01-29T09:43:10.666Z,61.21
2023-01-29T09:44:10.662Z,60.06
2023-01-29T09:45:10.660Z,62.20
2023-01-29T09:46:10.692Z,61.08
2023-01-29T09:47:10.647Z,62.00
2023-01-29T09:48:10.624Z,62.07
2023-01-29T09:49:10.610Z,61.05
2023-01-29T09:50:10.605Z,62.11
2023-01-29T09:51:10.593Z,61.25
2023-01-29T09:52:10.608Z,61.29
2023-01-29T09:53:10.567Z,61.40
2023-01-29T09:54:10.577Z,61.91
2023-01-29T09:55:10.570Z,62.67
2023-01-29T09:56:10.548Z,61.98
2023-01-29T09:57:10.550Z,61.50
2023-01-29T09:58:10.540Z,61.43
2023-01-29T09:59:10.524Z,61.00
2023-01-29T10:00:10.515Z,62.19
2023-01-29T10:01:10.556Z,59.45
2023-01-29T10:02:10.596Z,63.40
2023-01-29T10:03:10.501Z,64.16
2023-01-29T10:04:10.481Z,60.88
2023-01-29T10:05:10.461Z,62.14
2023-01-29T10:06:10.461Z,62.98
2023-01-29T10:07:10.471Z,62.08
2023-01-29T10:08:10.453Z,62.36
2023-01-29T10:09:10.435Z,61.79
2023-01-29T10:10:10.434Z,62.22
2023-01-29T10:11:10.423Z,62.18
2023-01-29T10:12:10.428Z,61.02
2023-01-29T10:13:10.393Z,61.48
2023-01-29T10:14:10.397Z,62.81
2023-01-29T10:15:10.388Z,61.35
2023-01-29T10:16:10.371Z,61.44
2023-01-29T10:17:10.450Z,61.70
2023-01-29T10:18:10.352Z,59.71
2023-01-29T10:19:10.337Z,61.21
2023-01-29T10:20:10.342Z,61.19
2023-01-29T10:21:10.321Z,61.87
2023-01-29T10:22:10.340Z,62.08
2023-01-29T10:23:10.318Z,59.54
2023-01-29T10:24:10.313Z,61.02
2023-01-29T10:25:10.295Z,59.98
2023-01-29T10:26:10.318Z,62.20
2023-01-29T10:27:10.290Z,61.93
2023-01-29T10:28:10.272Z,61.91
2023-01-29T10:29:10.445Z,63.06
2023-01-29T10:30:10.241Z,62.45
2023-01-29T10:31:10.313Z,62.69
2023-01-29T10:32:10.398Z,62.51
2023-01-29T10:33:10.224Z,63.62
2023-01-29T10:34:10.207Z,63.09
2023-01-29T10:35:10.197Z,63.97
2023-01-29T10:36:10.195Z,62.39
2023-01-29T10:37:10.204Z,63.18
2023-01-29T10:38:10.166Z,62.13
2023-01-29T10:39:10.176Z,63.05
2023-01-29T10:40:10.153Z,62.04
2023-01-29T10:41:10.144Z,61.99
2023-01-29T10:42:10.162Z,61.68
2023-01-29T10:43:10.129Z,62.67
2023-01-29T10:44:10.113Z,62.76
2023-01-29T10:45:11.107Z,63.06
2023-01-29T10:46:10.112Z,62.56
2023-01-29T10:47:10.147Z,61.86
2023-01-29T10:48:10.097Z,62.46
2023-01-29T10:49:10.093Z,62.77
2023-01-29T10:50:10.068Z,64.18
2023-01-29T10:51:10.058Z,64.00
2023-01-29T10:52:10.065Z,62.30
2023-01-29T10:53:10.042Z,62.93
2023-01-29T10:54:10.053Z,62.08
2023-01-29T10:55:10.026Z,61.52
2023-01-29T10:56:21.863Z,62.18
2023-01-29T10:57:12.039Z,62.22
2023-01-29T10:58:09.997Z,63.02
2023-01-29T10:59:10.013Z,62.55
2023-01-29T11:00:09.995Z,63.03
2023-01-29T11:01:09.981Z,63.09
2023-01-29T11:02:09.987Z,63.49
2023-01-29T11:03:12.604Z,62.40
2023-01-29T11:04:11.968Z,62.45
2023-01-29T11:05:10.293Z,62.11
2023-01-29T11:06:09.935Z,61.81
2023-01-29T11:07:09.948Z,62.44
2023-01-29T11:08:09.921Z,62.29
2023-01-29T11:09:09.910Z,62.01
2023-01-29T11:10:09.900Z,62.19
2023-01-29T11:11:09.918Z,61.63
2023-01-29T11:12:09.901Z,61.45
2023-01-29T11:13:09.880Z,61.19
2023-01-29T11:14:09.864Z,61.67
2023-01-29T11:15:09.849Z,61.57
2023-01-29T11:16:09.849Z,60.75
2023-01-29T11:17:09.939Z,63.03
2023-01-29T11:18:09.829Z,62.40
2023-01-29T11:19:09.821Z,61.44
2023-01-29T11:20:09.816Z,62.55
2023-01-29T11:21:09.805Z,61.69
2023-01-29T11:22:09.811Z,61.57
2023-01-29T11:23:09.792Z,61.20
2023-01-29T11:24:09.772Z,62.32
2023-01-29T11:25:09.773Z,61.53
2023-01-29T11:26:09.772Z,62.58
2023-01-29T11:27:09.763Z,63.05
2023-01-29T11:28:09.741Z,62.70
2023-01-29T11:29:09.735Z,62.01
2023-01-29T11:30:09.712Z,60.46
2023-01-29T11:31:09.772Z,61.58
2023-01-29T11:32:09.738Z,60.91
2023-01-29T11:33:09.697Z,62.13
2023-01-29T11:34:09.685Z,62.11
2023-01-29T11:35:09.676Z,63.58
2023-01-29T11:36:09.664Z,62.55
2023-01-29T11:37:09.685Z,61.93
2023-01-29T11:38:09.641Z,62.73
2023-01-29T11:39:09.637Z,60.77
2023-01-29T11:40:09.670Z,61.74
2023-01-29T11:41:09.617Z,62.18
2023-01-29T11:42:09.620Z,62.22
2023-01-29T11:43:09.640Z,62.73
2023-01-29T11:44:09.594Z,62.74
2023-01-29T11:45:09.587Z,64.28
2023-01-29T11:46:09.585Z,62.35
2023-01-29T11:47:09.590Z,62.41
2023-01-29T11:48:09.559Z,61.75
2023-01-29T11:49:20.341Z,62.32
2023-01-29T11:50:11.552Z,63.30
2023-01-29T11:51:09.529Z,63.18
2023-01-29T11:52:09.550Z,62.38
2023-01-29T11:53:09.536Z,61.50
2023-01-29T11:54:09.513Z,62.03
2023-01-29T11:55:09.522Z,62.43
2023-01-29T11:56:09.505Z,62.31
2023-01-29T11:57:09.505Z,62.41
2023-01-29T11:58:09.478Z,63.40
2023-01-29T11:59:09.478Z,62.50
2023-01-29T12:00:09.461Z,63.23
2023-01-29T12:01:09.460Z,61.98
2023-01-29T12:02:09.466Z,62.33
2023-01-29T12:03:09.447Z,63.15
2023-01-29T12:04:09.453Z,62.14
2023-01-29T12:05:09.427Z,62.93
2023-01-29T12:06:09.488Z,62.85
2023-01-29T12:07:09.430Z,63.41
2023-01-29T12:08:09.404Z,62.07
2023-01-29T12:09:09.394Z,63.12
2023-01-29T12:10:09.376Z,63.07
2023-01-29T12:11:09.374Z,62.37
2023-01-29T12:12:10.389Z,62.75
2023-01-29T12:13:09.364Z,63.26
2023-01-29T12:14:09.347Z,63.32
2023-01-29T12:15:09.342Z,62.44
2023-01-29T12:16:09.372Z,62.24
2023-01-29T12:17:09.411Z,62.62
2023-01-29T12:18:09.314Z,62.44
2023-01-29T12:19:09.310Z,63.76
2023-01-29T12:20:09.300Z,62.34
2023-01-29T12:21:09.295Z,63.36
2023-01-29T12:22:09.285Z,63.17
2023-01-29T12:23:09.302Z,62.05
2023-01-29T12:24:09.281Z,61.91
2023-01-29T12:25:09.272Z,63.82
2023-01-29T12:26:09.291Z,61.74
2023-01-29T12:27:09.256Z,62.93
2023-01-29T12:28:09.700Z,61.92
2023-01-29T12:29:10.239Z,61.74
2023-01-29T12:30:09.216Z,62.64
2023-01-29T12:31:09.304Z,62.15
2023-01-29T12:32:09.212Z,62.09
2023-01-29T12:33:09.224Z,62.04
2023-01-29T12:34:09.199Z,62.42
2023-01-29T12:35:09.186Z,62.55
2023-01-29T12:36:10.826Z,61.30
2023-01-29T12:37:10.175Z,63.64
2023-01-29T12:38:09.180Z,62.23
2023-01-29T12:39:09.154Z,61.98
2023-01-29T12:40:09.152Z,61.76
2023-01-29T12:41:09.140Z,62.16
2023-01-29T12:42:09.132Z,62.68
2023-01-29T12:43:09.150Z,62.12
2023-01-29T12:44:09.114Z,62.59
2023-01-29T12:45:09.093Z,62.45
2023-01-29T12:46:09.096Z,61.44
2023-01-29T12:47:09.148Z,62.81
2023-01-29T12:48:09.110Z,62.88
2023-01-29T12:49:09.067Z,61.89
2023-01-29T12:50:09.081Z,62.72
2023-01-29T12:51:09.070Z,62.21
2023-01-29T12:52:09.052Z,62.71